sensor_id;sensor_type;location;lat;lon;timestamp;temperature;humidity
18880;DHT22;9572;52.378;13.404;2023-08-17T00:02:20;20.00;99.90
18880;DHT22;9572;52.378;13.404;2023-08-17T00:04:47;20.00;99.90
18880;DHT22;9572;52.378;13.404;2023-08-17T00:07:14;20.00;99.90
18880;DHT22;9572;52.378;13.404;2023-08-17T00:09:43;20.00;99.90
18880;DHT22;9572;52.378;13.404;2023-08-17T00:12:09;20.00;99.90
18880;DHT22;9572;52.378;13.404;2023-08-17T00:14:36;19.90;99.90
18880;DHT22;9572;52.378;13.404;2023-08-17T00:17:03;19.90;99.90
18880;DHT22;9572;52.378;13.404;2023-08-17T00:19:30;19.90;99.90
18880;DHT22;9572;52.378;13.404;2023-08-17T00:21:57;19.90;99.90
18880;DHT22;9572;52.378;13.404;2023-08-17T00:24:24;19.90;99.90
18880;DHT22;9572;52.378;13.404;2023-08-17T00:26:53;19.90;99.90
18880;DHT22;9572;52.378;13.404;2023-08-17T00:29:20;19.90;99.90
18880;DHT22;9572;52.378;13.404;2023-08-17T00:31:47;19.90;99.90
18880;DHT22;9572;52.378;13.404;2023-08-17T00:34:14;19.90;99.90
18880;DHT22;9572;52.378;13.404;2023-08-17T00:36:41;19.80;99.90
18880;DHT22;9572;52.378;13.404;2023-08-17T00:39:08;19.70;99.90
18880;DHT22;9572;52.378;13.404;2023-08-17T00:41:35;19.70;99.90
18880;DHT22;9572;52.378;13.404;2023-08-17T00:44:04;19.70;99.90
18880;DHT22;9572;52.378;13.404;2023-08-17T00:46:31;19.70;99.90
18880;DHT22;9572;52.378;13.404;2023-08-17T00:48:59;19.70;99.90
18880;DHT22;9572;52.378;13.404;2023-08-17T00:51:27;19.70;99.90
18880;DHT22;9572;52.378;13.404;2023-08-17T00:53:57;19.70;99.90
18880;DHT22;9572;52.378;13.404;2023-08-17T00:56:25;19.70;99.90
18880;DHT22;9572;52.378;13.404;2023-08-17T00:58:52;19.60;99.90
18880;DHT22;9572;52.378;13.404;2023-08-17T01:01:22;19.60;99.90
18880;DHT22;9572;52.378;13.404;2023-08-17T01:03:49;19.60;99.90
18880;DHT22;9572;52.378;13.404;2023-08-17T01:06:17;19.60;99.90
18880;DHT22;9572;52.378;13.404;2023-08-17T01:08:46;19.50;99.90
18880;DHT22;9572;52.378;13.404;2023-08-17T01:11:22;19.50;99.90
18880;DHT22;9572;52.378;13.404;2023-08-17T01:13:55;19.50;99.90
18880;DHT22;9572;52.378;13.404;2023-08-17T01:16:29;19.50;99.90
18880;DHT22;9572;52.378;13.404;2023-08-17T01:18:58;19.40;99.90
18880;DHT22;9572;52.378;13.404;2023-08-17T01:21:35;19.40;99.90
18880;DHT22;9572;52.378;13.404;2023-08-17T01:24:05;19.40;99.90
18880;DHT22;9572;52.378;13.404;2023-08-17T01:26:32;19.40;99.90
18880;DHT22;9572;52.378;13.404;2023-08-17T01:28:59;19.30;99.90
18880;DHT22;9572;52.378;13.404;2023-08-17T01:31:30;19.30;99.90
18880;DHT22;9572;52.378;13.404;2023-08-17T01:34:05;19.30;99.90
18880;DHT22;9572;52.378;13.404;2023-08-17T01:36:37;19.30;99.90
18880;DHT22;9572;52.378;13.404;2023-08-17T01:39:07;19.20;99.90
18880;DHT22;9572;52.378;13.404;2023-08-17T01:41:35;19.20;99.90
18880;DHT22;9572;52.378;13.404;2023-08-17T01:44:03;19.20;99.90
18880;DHT22;9572;52.378;13.404;2023-08-17T01:46:33;19.20;99.90
18880;DHT22;9572;52.378;13.404;2023-08-17T01:49:00;19.20;99.90
18880;DHT22;9572;52.378;13.404;2023-08-17T01:51:27;19.20;99.90
18880;DHT22;9572;52.378;13.404;2023-08-17T01:53:54;19.30;99.90
18880;DHT22;9572;52.378;13.404;2023-08-17T01:56:23;19.20;99.90
18880;DHT22;9572;52.378;13.404;2023-08-17T01:58:50;19.20;99.90
18880;DHT22;9572;52.378;13.404;2023-08-17T02:01:17;19.20;99.90
18880;DHT22;9572;52.378;13.404;2023-08-17T02:03:43;19.20;99.90
18880;DHT22;9572;52.378;13.404;2023-08-17T02:06:10;19.20;99.90
18880;DHT22;9572;52.378;13.404;2023-08-17T02:08:37;19.10;99.90
18880;DHT22;9572;52.378;13.404;2023-08-17T02:11:04;19.10;99.90
18880;DHT22;9572;52.378;13.404;2023-08-17T02:13:33;19.10;99.90
18880;DHT22;9572;52.378;13.404;2023-08-17T02:16:00;19.00;99.90
18880;DHT22;9572;52.378;13.404;2023-08-17T02:18:27;19.00;99.90
18880;DHT22;9572;52.378;13.404;2023-08-17T02:20:57;19.10;99.90
18880;DHT22;9572;52.378;13.404;2023-08-17T02:23:24;19.10;99.90
18880;DHT22;9572;52.378;13.404;2023-08-17T02:25:51;19.00;99.90
18880;DHT22;9572;52.378;13.404;2023-08-17T02:28:18;19.00;99.90
18880;DHT22;9572;52.378;13.404;2023-08-17T02:30:46;19.00;99.90
18880;DHT22;9572;52.378;13.404;2023-08-17T02:33:13;19.00;99.90
18880;DHT22;9572;52.378;13.404;2023-08-17T02:35:40;18.90;99.90
18880;DHT22;9572;52.378;13.404;2023-08-17T02:38:07;19.00;99.90
18880;DHT22;9572;52.378;13.404;2023-08-17T02:40:34;18.90;99.90
18880;DHT22;9572;52.378;13.404;2023-08-17T02:43:01;18.90;99.90
18880;DHT22;9572;52.378;13.404;2023-08-17T02:45:27;18.90;99.90
18880;DHT22;9572;52.378;13.404;2023-08-17T02:47:56;18.80;99.90
18880;DHT22;9572;52.378;13.404;2023-08-17T02:50:23;18.80;99.90
18880;DHT22;9572;52.378;13.404;2023-08-17T02:52:50;18.80;99.90
18880;DHT22;9572;52.378;13.404;2023-08-17T02:55:17;18.90;99.90
18880;DHT22;9572;52.378;13.404;2023-08-17T02:57:44;18.80;99.90
18880;DHT22;9572;52.378;13.404;2023-08-17T03:00:12;18.80;99.90
18880;DHT22;9572;52.378;13.404;2023-08-17T03:02:39;18.80;99.90
18880;DHT22;9572;52.378;13.404;2023-08-17T03:05:07;18.80;99.90
18880;DHT22;9572;52.378;13.404;2023-08-17T03:07:34;18.90;99.90
18880;DHT22;9572;52.378;13.404;2023-08-17T03:10:01;18.90;99.90
18880;DHT22;9572;52.378;13.404;2023-08-17T03:12:28;18.80;99.90
18880;DHT22;9572;52.378;13.404;2023-08-17T03:14:55;18.70;99.90
18880;DHT22;9572;52.378;13.404;2023-08-17T03:17:22;18.60;99.90
18880;DHT22;9572;52.378;13.404;2023-08-17T03:19:49;18.60;99.90
18880;DHT22;9572;52.378;13.404;2023-08-17T03:22:17;18.60;99.90
18880;DHT22;9572;52.378;13.404;2023-08-17T03:24:44;18.70;99.90
18880;DHT22;9572;52.378;13.404;2023-08-17T03:27:11;18.70;99.90
18880;DHT22;9572;52.378;13.404;2023-08-17T03:29:38;18.70;99.90
18880;DHT22;9572;52.378;13.404;2023-08-17T03:32:05;18.70;99.90
18880;DHT22;9572;52.378;13.404;2023-08-17T03:34:32;18.70;99.90
18880;DHT22;9572;52.378;13.404;2023-08-17T03:36:59;18.70;99.90
18880;DHT22;9572;52.378;13.404;2023-08-17T03:39:27;18.70;99.90
18880;DHT22;9572;52.378;13.404;2023-08-17T03:41:54;18.80;99.90
18880;DHT22;9572;52.378;13.404;2023-08-17T03:44:21;18.70;99.90
18880;DHT22;9572;52.378;13.404;2023-08-17T03:46:48;18.70;99.90
18880;DHT22;9572;52.378;13.404;2023-08-17T03:49:15;18.70;99.90
18880;DHT22;9572;52.378;13.404;2023-08-17T03:51:42;18.60;99.90
18880;DHT22;9572;52.378;13.404;2023-08-17T03:54:09;18.70;99.90
18880;DHT22;9572;52.378;13.404;2023-08-17T03:56:37;18.70;99.90
18880;DHT22;9572;52.378;13.404;2023-08-17T03:59:04;18.60;99.90
18880;DHT22;9572;52.378;13.404;2023-08-17T04:01:31;18.70;99.90
18880;DHT22;9572;52.378;13.404;2023-08-17T04:03:58;18.70;99.90
18880;DHT22;9572;52.378;13.404;2023-08-17T04:06:25;18.70;99.90
18880;DHT22;9572;52.378;13.404;2023-08-17T04:08:52;18.80;99.90
18880;DHT22;9572;52.378;13.404;2023-08-17T04:11:19;18.70;99.90
18880;DHT22;9572;52.378;13.404;2023-08-17T04:13:47;18.70;99.90
18880;DHT22;9572;52.378;13.404;2023-08-17T04:16:14;18.80;99.90
18880;DHT22;9572;52.378;13.404;2023-08-17T04:18:41;18.70;99.90
18880;DHT22;9572;52.378;13.404;2023-08-17T04:21:08;18.80;99.90
18880;DHT22;9572;52.378;13.404;2023-08-17T04:23:35;18.80;99.90
18880;DHT22;9572;52.378;13.404;2023-08-17T04:26:02;18.80;99.90
18880;DHT22;9572;52.378;13.404;2023-08-17T04:28:29;18.80;99.90
18880;DHT22;9572;52.378;13.404;2023-08-17T04:30:57;18.80;99.90
18880;DHT22;9572;52.378;13.404;2023-08-17T04:33:24;18.90;99.90
18880;DHT22;9572;52.378;13.404;2023-08-17T04:35:51;19.00;99.90
18880;DHT22;9572;52.378;13.404;2023-08-17T04:38:18;19.00;99.90
18880;DHT22;9572;52.378;13.404;2023-08-17T04:40:45;19.10;99.90
18880;DHT22;9572;52.378;13.404;2023-08-17T04:43:12;19.10;99.90
18880;DHT22;9572;52.378;13.404;2023-08-17T04:45:39;19.20;99.90
18880;DHT22;9572;52.378;13.404;2023-08-17T04:48:08;19.20;99.90
18880;DHT22;9572;52.378;13.404;2023-08-17T04:50:35;19.20;99.90
18880;DHT22;9572;52.378;13.404;2023-08-17T04:53:02;19.10;99.90
18880;DHT22;9572;52.378;13.404;2023-08-17T04:55:29;19.10;99.90
18880;DHT22;9572;52.378;13.404;2023-08-17T04:57:57;19.20;99.90
18880;DHT22;9572;52.378;13.404;2023-08-17T05:00:24;19.20;99.90
18880;DHT22;9572;52.378;13.404;2023-08-17T05:02:53;19.30;99.90
18880;DHT22;9572;52.378;13.404;2023-08-17T05:05:22;19.30;99.90
18880;DHT22;9572;52.378;13.404;2023-08-17T05:07:49;19.30;99.90
18880;DHT22;9572;52.378;13.404;2023-08-17T05:10:16;19.30;99.90
18880;DHT22;9572;52.378;13.404;2023-08-17T05:12:43;19.40;99.90
18880;DHT22;9572;52.378;13.404;2023-08-17T05:15:12;19.40;99.90
18880;DHT22;9572;52.378;13.404;2023-08-17T05:17:39;19.50;99.90
18880;DHT22;9572;52.378;13.404;2023-08-17T05:20:07;19.50;99.90
18880;DHT22;9572;52.378;13.404;2023-08-17T05:22:36;19.60;99.90
18880;DHT22;9572;52.378;13.404;2023-08-17T05:25:04;19.60;99.90
18880;DHT22;9572;52.378;13.404;2023-08-17T05:27:31;19.70;99.90
18880;DHT22;9572;52.378;13.404;2023-08-17T05:29:58;19.70;99.90
18880;DHT22;9572;52.378;13.404;2023-08-17T05:32:25;19.70;99.90
18880;DHT22;9572;52.378;13.404;2023-08-17T05:34:52;19.80;99.90
18880;DHT22;9572;52.378;13.404;2023-08-17T05:37:19;19.80;99.90
18880;DHT22;9572;52.378;13.404;2023-08-17T05:39:47;19.80;99.90
18880;DHT22;9572;52.378;13.404;2023-08-17T05:42:14;19.80;99.90
18880;DHT22;9572;52.378;13.404;2023-08-17T05:44:41;19.80;99.90
18880;DHT22;9572;52.378;13.404;2023-08-17T05:47:08;19.80;99.90
18880;DHT22;9572;52.378;13.404;2023-08-17T05:49:35;19.90;99.90
18880;DHT22;9572;52.378;13.404;2023-08-17T05:52:03;19.90;99.90
18880;DHT22;9572;52.378;13.404;2023-08-17T05:54:30;19.90;99.90
18880;DHT22;9572;52.378;13.404;2023-08-17T05:56:59;20.00;99.90
18880;DHT22;9572;52.378;13.404;2023-08-17T05:59:26;19.90;99.90
18880;DHT22;9572;52.378;13.404;2023-08-17T06:01:52;19.90;99.90
18880;DHT22;9572;52.378;13.404;2023-08-17T06:04:19;19.80;99.90
18880;DHT22;9572;52.378;13.404;2023-08-17T06:06:47;19.80;99.90
18880;DHT22;9572;52.378;13.404;2023-08-17T06:09:14;19.80;99.90
18880;DHT22;9572;52.378;13.404;2023-08-17T06:11:41;19.90;99.90
18880;DHT22;9572;52.378;13.404;2023-08-17T06:14:09;19.90;99.90
18880;DHT22;9572;52.378;13.404;2023-08-17T06:16:36;19.90;99.90
18880;DHT22;9572;52.378;13.404;2023-08-17T06:19:03;20.00;99.90
18880;DHT22;9572;52.378;13.404;2023-08-17T06:21:30;20.00;99.90
18880;DHT22;9572;52.378;13.404;2023-08-17T06:23:57;20.00;99.90
18880;DHT22;9572;52.378;13.404;2023-08-17T06:26:24;20.10;99.90
18880;DHT22;9572;52.378;13.404;2023-08-17T06:28:51;20.10;99.90
18880;DHT22;9572;52.378;13.404;2023-08-17T06:31:19;20.10;99.90
18880;DHT22;9572;52.378;13.404;2023-08-17T06:33:46;20.20;99.90
18880;DHT22;9572;52.378;13.404;2023-08-17T06:36:13;20.30;99.90
18880;DHT22;9572;52.378;13.404;2023-08-17T06:38:42;20.40;99.90
18880;DHT22;9572;52.378;13.404;2023-08-17T06:41:09;20.50;99.90
18880;DHT22;9572;52.378;13.404;2023-08-17T06:43:36;20.60;99.90
18880;DHT22;9572;52.378;13.404;2023-08-17T06:46:03;20.70;99.90
18880;DHT22;9572;52.378;13.404;2023-08-17T06:48:31;20.80;99.90
18880;DHT22;9572;52.378;13.404;2023-08-17T06:50:58;21.00;99.90
18880;DHT22;9572;52.378;13.404;2023-08-17T06:53:25;21.20;99.90
18880;DHT22;9572;52.378;13.404;2023-08-17T06:55:52;21.30;99.90
18880;DHT22;9572;52.378;13.404;2023-08-17T06:58:19;21.30;99.90
18880;DHT22;9572;52.378;13.404;2023-08-17T07:00:46;21.30;99.90
18880;DHT22;9572;52.378;13.404;2023-08-17T07:03:13;21.30;99.90
18880;DHT22;9572;52.378;13.404;2023-08-17T07:05:41;21.40;99.90
18880;DHT22;9572;52.378;13.404;2023-08-17T07:08:08;21.50;99.90
18880;DHT22;9572;52.378;13.404;2023-08-17T07:10:35;21.50;99.90
18880;DHT22;9572;52.378;13.404;2023-08-17T07:13:02;21.50;99.90
18880;DHT22;9572;52.378;13.404;2023-08-17T07:15:29;21.50;99.90
18880;DHT22;9572;52.378;13.404;2023-08-17T07:17:56;21.50;99.90
18880;DHT22;9572;52.378;13.404;2023-08-17T07:20:23;21.50;99.90
18880;DHT22;9572;52.378;13.404;2023-08-17T07:22:51;21.50;99.90
18880;DHT22;9572;52.378;13.404;2023-08-17T07:25:18;21.50;99.90
18880;DHT22;9572;52.378;13.404;2023-08-17T07:27:45;21.40;99.90
18880;DHT22;9572;52.378;13.404;2023-08-17T07:30:13;21.40;99.90
18880;DHT22;9572;52.378;13.404;2023-08-17T07:32:40;21.40;99.90
18880;DHT22;9572;52.378;13.404;2023-08-17T07:35:07;21.50;99.90
18880;DHT22;9572;52.378;13.404;2023-08-17T07:37:35;21.70;99.90
18880;DHT22;9572;52.378;13.404;2023-08-17T07:40:04;21.80;99.90
18880;DHT22;9572;52.378;13.404;2023-08-17T07:42:32;22.00;99.90
18880;DHT22;9572;52.378;13.404;2023-08-17T07:44:59;22.10;99.90
18880;DHT22;9572;52.378;13.404;2023-08-17T07:47:26;22.00;99.90
18880;DHT22;9572;52.378;13.404;2023-08-17T07:49:53;22.10;99.90
18880;DHT22;9572;52.378;13.404;2023-08-17T07:52:20;22.20;99.90
18880;DHT22;9572;52.378;13.404;2023-08-17T07:54:47;22.30;99.90
18880;DHT22;9572;52.378;13.404;2023-08-17T07:57:15;22.40;99.90
18880;DHT22;9572;52.378;13.404;2023-08-17T07:59:42;22.50;99.90
18880;DHT22;9572;52.378;13.404;2023-08-17T08:02:10;22.60;99.90
18880;DHT22;9572;52.378;13.404;2023-08-17T08:04:36;22.80;99.90
18880;DHT22;9572;52.378;13.404;2023-08-17T08:07:06;23.00;99.90
18880;DHT22;9572;52.378;13.404;2023-08-17T08:09:33;23.20;99.90
18880;DHT22;9572;52.378;13.404;2023-08-17T08:12:00;23.20;99.90
18880;DHT22;9572;52.378;13.404;2023-08-17T08:14:28;23.20;99.90
18880;DHT22;9572;52.378;13.404;2023-08-17T08:16:55;23.10;99.90
18880;DHT22;9572;52.378;13.404;2023-08-17T08:19:22;23.10;99.90
18880;DHT22;9572;52.378;13.404;2023-08-17T08:21:49;23.00;99.90
18880;DHT22;9572;52.378;13.404;2023-08-17T08:24:16;23.10;99.90
18880;DHT22;9572;52.378;13.404;2023-08-17T08:26:44;23.30;99.90
18880;DHT22;9572;52.378;13.404;2023-08-17T08:29:11;23.30;99.90
18880;DHT22;9572;52.378;13.404;2023-08-17T08:31:39;23.30;99.90
18880;DHT22;9572;52.378;13.404;2023-08-17T08:34:06;23.20;99.90
18880;DHT22;9572;52.378;13.404;2023-08-17T08:36:33;23.10;99.90
18880;DHT22;9572;52.378;13.404;2023-08-17T08:39:00;23.00;99.90
18880;DHT22;9572;52.378;13.404;2023-08-17T08:41:29;22.90;99.90
18880;DHT22;9572;52.378;13.404;2023-08-17T08:43:57;22.90;99.90
18880;DHT22;9572;52.378;13.404;2023-08-17T08:46:26;22.80;99.90
18880;DHT22;9572;52.378;13.404;2023-08-17T08:48:58;22.80;99.90
18880;DHT22;9572;52.378;13.404;2023-08-17T08:51:27;22.70;99.90
18880;DHT22;9572;52.378;13.404;2023-08-17T08:54:00;22.60;99.90
18880;DHT22;9572;52.378;13.404;2023-08-17T08:56:32;22.50;99.90
18880;DHT22;9572;52.378;13.404;2023-08-17T08:59:01;22.50;99.90
18880;DHT22;9572;52.378;13.404;2023-08-17T09:01:30;22.40;99.90
18880;DHT22;9572;52.378;13.404;2023-08-17T09:04:00;22.40;99.90
18880;DHT22;9572;52.378;13.404;2023-08-17T09:06:29;22.40;99.90
18880;DHT22;9572;52.378;13.404;2023-08-17T09:08:57;22.50;99.90
18880;DHT22;9572;52.378;13.404;2023-08-17T09:11:25;22.70;99.90
18880;DHT22;9572;52.378;13.404;2023-08-17T09:13:53;22.90;99.90
18880;DHT22;9572;52.378;13.404;2023-08-17T09:16:20;23.30;99.90
18880;DHT22;9572;52.378;13.404;2023-08-17T09:18:47;23.60;99.90
18880;DHT22;9572;52.378;13.404;2023-08-17T09:21:22;23.70;99.90
18880;DHT22;9572;52.378;13.404;2023-08-17T09:23:53;23.80;99.90
18880;DHT22;9572;52.378;13.404;2023-08-17T09:26:21;23.80;99.90
18880;DHT22;9572;52.378;13.404;2023-08-17T09:28:49;23.90;99.90
18880;DHT22;9572;52.378;13.404;2023-08-17T09:31:16;24.10;99.90
18880;DHT22;9572;52.378;13.404;2023-08-17T09:33:49;24.20;99.90
18880;DHT22;9572;52.378;13.404;2023-08-17T09:36:22;24.40;99.90
18880;DHT22;9572;52.378;13.404;2023-08-17T09:38:51;24.30;99.90
18880;DHT22;9572;52.378;13.404;2023-08-17T09:41:18;24.40;99.90
18880;DHT22;9572;52.378;13.404;2023-08-17T09:43:46;24.40;99.90
18880;DHT22;9572;52.378;13.404;2023-08-17T09:46:14;24.10;99.90
18880;DHT22;9572;52.378;13.404;2023-08-17T09:48:43;24.10;99.90
18880;DHT22;9572;52.378;13.404;2023-08-17T09:51:10;24.10;99.90
18880;DHT22;9572;52.378;13.404;2023-08-17T09:53:38;24.00;99.90
18880;DHT22;9572;52.378;13.404;2023-08-17T09:56:06;23.90;99.90
18880;DHT22;9572;52.378;13.404;2023-08-17T09:58:36;23.80;99.90
18880;DHT22;9572;52.378;13.404;2023-08-17T10:01:04;23.80;99.90
18880;DHT22;9572;52.378;13.404;2023-08-17T10:03:33;23.60;99.90
18880;DHT22;9572;52.378;13.404;2023-08-17T10:06:05;23.50;99.90
18880;DHT22;9572;52.378;13.404;2023-08-17T10:08:36;23.30;99.90
18880;DHT22;9572;52.378;13.404;2023-08-17T10:11:07;23.30;99.90
18880;DHT22;9572;52.378;13.404;2023-08-17T10:13:37;23.30;99.90
18880;DHT22;9572;52.378;13.404;2023-08-17T10:16:11;23.50;99.90
18880;DHT22;9572;52.378;13.404;2023-08-17T10:18:48;23.70;99.90
18880;DHT22;9572;52.378;13.404;2023-08-17T10:21:23;23.90;99.90
18880;DHT22;9572;52.378;13.404;2023-08-17T10:23:55;24.20;99.90
18880;DHT22;9572;52.378;13.404;2023-08-17T10:26:23;24.40;99.90
18880;DHT22;9572;52.378;13.404;2023-08-17T10:28:51;24.60;99.90
18880;DHT22;9572;52.378;13.404;2023-08-17T10:31:19;25.20;99.90
18880;DHT22;9572;52.378;13.404;2023-08-17T10:33:47;25.40;99.90
18880;DHT22;9572;52.378;13.404;2023-08-17T10:36:15;25.50;99.90
18880;DHT22;9572;52.378;13.404;2023-08-17T10:38:42;25.70;99.90
18880;DHT22;9572;52.378;13.404;2023-08-17T10:41:10;25.80;99.90
18880;DHT22;9572;52.378;13.404;2023-08-17T10:43:56;25.90;99.90
18880;DHT22;9572;52.378;13.404;2023-08-17T10:46:33;25.90;99.90
18880;DHT22;9572;52.378;13.404;2023-08-17T10:49:04;25.70;99.90
18880;DHT22;9572;52.378;13.404;2023-08-17T10:51:31;25.50;99.90
18880;DHT22;9572;52.378;13.404;2023-08-17T10:54:01;25.40;99.90
18880;DHT22;9572;52.378;13.404;2023-08-17T10:56:29;25.50;99.90
18880;DHT22;9572;52.378;13.404;2023-08-17T10:59:01;26.00;99.90
18880;DHT22;9572;52.378;13.404;2023-08-17T11:04:32;26.80;99.90
18880;DHT22;9572;52.378;13.404;2023-08-17T11:07:02;26.90;99.90
18880;DHT22;9572;52.378;13.404;2023-08-17T11:09:29;26.80;99.90
18880;DHT22;9572;52.378;13.404;2023-08-17T11:12:00;26.40;99.90
18880;DHT22;9572;52.378;13.404;2023-08-17T11:14:34;26.40;99.90
18880;DHT22;9572;52.378;13.404;2023-08-17T11:17:03;26.40;99.90
18880;DHT22;9572;52.378;13.404;2023-08-17T11:19:30;26.40;99.90
18880;DHT22;9572;52.378;13.404;2023-08-17T11:21:56;26.40;99.90
18880;DHT22;9572;52.378;13.404;2023-08-17T11:24:23;26.30;99.90
18880;DHT22;9572;52.378;13.404;2023-08-17T11:26:50;26.30;99.90
18880;DHT22;9572;52.378;13.404;2023-08-17T11:29:18;26.20;99.90
18880;DHT22;9572;52.378;13.404;2023-08-17T11:31:50;26.10;99.90
18880;DHT22;9572;52.378;13.404;2023-08-17T11:34:17;26.10;99.90
18880;DHT22;9572;52.378;13.404;2023-08-17T11:36:43;26.00;99.90
18880;DHT22;9572;52.378;13.404;2023-08-17T11:39:10;26.00;99.90
18880;DHT22;9572;52.378;13.404;2023-08-17T11:41:39;26.00;99.90
18880;DHT22;9572;52.378;13.404;2023-08-17T11:44:06;25.90;99.90
18880;DHT22;9572;52.378;13.404;2023-08-17T11:46:33;26.10;99.90
18880;DHT22;9572;52.378;13.404;2023-08-17T11:49:02;26.40;99.90
18880;DHT22;9572;52.378;13.404;2023-08-17T11:51:29;26.50;99.90
18880;DHT22;9572;52.378;13.404;2023-08-17T11:53:59;26.60;99.90
18880;DHT22;9572;52.378;13.404;2023-08-17T11:56:26;26.70;99.90
18880;DHT22;9572;52.378;13.404;2023-08-17T11:58:53;26.80;99.90
18880;DHT22;9572;52.378;13.404;2023-08-17T12:01:20;26.80;99.90
18880;DHT22;9572;52.378;13.404;2023-08-17T12:03:48;26.90;99.90
18880;DHT22;9572;52.378;13.404;2023-08-17T12:06:25;27.00;99.90
18880;DHT22;9572;52.378;13.404;2023-08-17T12:08:52;27.20;99.90
18880;DHT22;9572;52.378;13.404;2023-08-17T12:11:24;27.40;99.90
18880;DHT22;9572;52.378;13.404;2023-08-17T12:13:51;27.60;99.90
18880;DHT22;9572;52.378;13.404;2023-08-17T12:16:24;27.80;99.90
18880;DHT22;9572;52.378;13.404;2023-08-17T12:18:52;27.70;99.90
18880;DHT22;9572;52.378;13.404;2023-08-17T12:21:20;27.50;99.90
18880;DHT22;9572;52.378;13.404;2023-08-17T12:23:55;27.40;99.90
18880;DHT22;9572;52.378;13.404;2023-08-17T12:26:23;27.20;99.90
18880;DHT22;9572;52.378;13.404;2023-08-17T12:28:50;27.10;99.90
18880;DHT22;9572;52.378;13.404;2023-08-17T12:31:23;27.20;99.90
18880;DHT22;9572;52.378;13.404;2023-08-17T12:33:51;27.40;99.90
18880;DHT22;9572;52.378;13.404;2023-08-17T12:36:20;27.40;99.90
18880;DHT22;9572;52.378;13.404;2023-08-17T12:38:56;27.30;99.90
18880;DHT22;9572;52.378;13.404;2023-08-17T12:41:23;27.00;99.90
18880;DHT22;9572;52.378;13.404;2023-08-17T12:43:50;26.80;99.90
18880;DHT22;9572;52.378;13.404;2023-08-17T12:46:24;26.80;99.90
18880;DHT22;9572;52.378;13.404;2023-08-17T12:48:51;26.90;99.90
18880;DHT22;9572;52.378;13.404;2023-08-17T12:51:20;26.90;99.90
18880;DHT22;9572;52.378;13.404;2023-08-17T12:53:56;26.80;99.90
18880;DHT22;9572;52.378;13.404;2023-08-17T12:56:23;26.80;99.90
18880;DHT22;9572;52.378;13.404;2023-08-17T12:58:50;26.90;99.90
18880;DHT22;9572;52.378;13.404;2023-08-17T13:01:21;27.10;99.90
18880;DHT22;9572;52.378;13.404;2023-08-17T13:03:50;27.10;99.90
18880;DHT22;9572;52.378;13.404;2023-08-17T13:06:21;27.20;99.90
18880;DHT22;9572;52.378;13.404;2023-08-17T13:08:55;27.30;99.90
18880;DHT22;9572;52.378;13.404;2023-08-17T13:11:23;27.30;99.90
18880;DHT22;9572;52.378;13.404;2023-08-17T13:13:52;27.20;99.90
18880;DHT22;9572;52.378;13.404;2023-08-17T13:16:21;27.10;99.90
18880;DHT22;9572;52.378;13.404;2023-08-17T13:18:50;27.00;99.90
18880;DHT22;9572;52.378;13.404;2023-08-17T13:21:21;26.90;99.90
18880;DHT22;9572;52.378;13.404;2023-08-17T13:23:50;26.80;99.90
18880;DHT22;9572;52.378;13.404;2023-08-17T13:26:26;26.80;99.90
18880;DHT22;9572;52.378;13.404;2023-08-17T13:28:54;26.80;99.90
18880;DHT22;9572;52.378;13.404;2023-08-17T13:31:21;26.90;99.90
18880;DHT22;9572;52.378;13.404;2023-08-17T13:33:51;27.00;99.90
18880;DHT22;9572;52.378;13.404;2023-08-17T13:36:22;27.00;99.90
18880;DHT22;9572;52.378;13.404;2023-08-17T13:38:51;26.90;99.90
18880;DHT22;9572;52.378;13.404;2023-08-17T13:41:27;27.00;99.90
18880;DHT22;9572;52.378;13.404;2023-08-17T13:43:54;27.10;99.90
18880;DHT22;9572;52.378;13.404;2023-08-17T13:46:23;27.20;99.90
18880;DHT22;9572;52.378;13.404;2023-08-17T13:48:50;27.30;99.90
18880;DHT22;9572;52.378;13.404;2023-08-17T13:51:17;27.30;99.90
18880;DHT22;9572;52.378;13.404;2023-08-17T13:53:44;27.40;99.90
18880;DHT22;9572;52.378;13.404;2023-08-17T13:56:11;27.40;99.90
18880;DHT22;9572;52.378;13.404;2023-08-17T13:58:40;27.50;99.90
18880;DHT22;9572;52.378;13.404;2023-08-17T14:01:07;27.60;99.90
18880;DHT22;9572;52.378;13.404;2023-08-17T14:03:35;27.50;99.90
18880;DHT22;9572;52.378;13.404;2023-08-17T14:06:02;27.30;99.90
18880;DHT22;9572;52.378;13.404;2023-08-17T14:08:29;27.20;99.90
18880;DHT22;9572;52.378;13.404;2023-08-17T14:10:56;27.20;99.90
18880;DHT22;9572;52.378;13.404;2023-08-17T14:13:23;27.30;99.90
18880;DHT22;9572;52.378;13.404;2023-08-17T14:15:51;27.50;99.90
18880;DHT22;9572;52.378;13.404;2023-08-17T14:18:21;27.70;99.90
18880;DHT22;9572;52.378;13.404;2023-08-17T14:20:48;27.80;99.90
18880;DHT22;9572;52.378;13.404;2023-08-17T14:23:15;27.90;99.90
18880;DHT22;9572;52.378;13.404;2023-08-17T14:25:42;28.10;99.90
18880;DHT22;9572;52.378;13.404;2023-08-17T14:28:09;28.20;99.90
18880;DHT22;9572;52.378;13.404;2023-08-17T14:30:36;28.00;99.90
18880;DHT22;9572;52.378;13.404;2023-08-17T14:33:04;27.90;99.90
18880;DHT22;9572;52.378;13.404;2023-08-17T14:35:32;27.70;99.90
18880;DHT22;9572;52.378;13.404;2023-08-17T14:37:59;27.60;99.90
18880;DHT22;9572;52.378;13.404;2023-08-17T14:40:27;27.60;99.90
18880;DHT22;9572;52.378;13.404;2023-08-17T14:42:54;27.60;99.90
18880;DHT22;9572;52.378;13.404;2023-08-17T14:45:21;27.70;99.90
18880;DHT22;9572;52.378;13.404;2023-08-17T14:47:48;27.70;99.90
18880;DHT22;9572;52.378;13.404;2023-08-17T14:50:17;27.80;99.90
18880;DHT22;9572;52.378;13.404;2023-08-17T14:52:44;28.00;99.90
18880;DHT22;9572;52.378;13.404;2023-08-17T14:55:12;28.20;99.90
18880;DHT22;9572;52.378;13.404;2023-08-17T14:57:51;28.20;99.90
18880;DHT22;9572;52.378;13.404;2023-08-17T15:00:18;28.20;99.90
18880;DHT22;9572;52.378;13.404;2023-08-17T15:02:45;28.30;99.90
18880;DHT22;9572;52.378;13.404;2023-08-17T15:05:12;28.30;99.90
18880;DHT22;9572;52.378;13.404;2023-08-17T15:07:40;28.30;99.90
18880;DHT22;9572;52.378;13.404;2023-08-17T15:10:07;28.30;99.90
18880;DHT22;9572;52.378;13.404;2023-08-17T15:12:34;28.10;99.90
18880;DHT22;9572;52.378;13.404;2023-08-17T15:15:01;28.00;99.90
18880;DHT22;9572;52.378;13.404;2023-08-17T15:17:30;28.00;99.90
18880;DHT22;9572;52.378;13.404;2023-08-17T15:19:58;28.00;99.90
18880;DHT22;9572;52.378;13.404;2023-08-17T15:22:25;27.90;99.90
18880;DHT22;9572;52.378;13.404;2023-08-17T15:24:55;27.80;99.90
18880;DHT22;9572;52.378;13.404;2023-08-17T15:27:22;27.70;99.90
18880;DHT22;9572;52.378;13.404;2023-08-17T15:29:49;27.60;99.90
18880;DHT22;9572;52.378;13.404;2023-08-17T15:32:16;27.40;99.90
18880;DHT22;9572;52.378;13.404;2023-08-17T15:34:43;27.30;99.90
18880;DHT22;9572;52.378;13.404;2023-08-17T15:37:10;27.30;99.90
18880;DHT22;9572;52.378;13.404;2023-08-17T15:39:37;27.30;99.90